createdAt,value
2023-04-15T00:00:58.541Z,32.28
2023-04-15T00:03:25.513Z,31.83
2023-04-15T00:05:52.276Z,32.70
2023-04-15T00:08:19.584Z,35.95
2023-04-15T00:10:46.755Z,32.13
2023-04-15T00:13:13.358Z,32.00
2023-04-15T00:15:39.888Z,34.15
2023-04-15T00:18:08.097Z,34.78
2023-04-15T00:20:35.453Z,34.42
2023-04-15T00:23:02.644Z,32.00
2023-04-15T00:25:29.296Z,32.95
2023-04-15T00:27:55.826Z,33.40
2023-04-15T00:30:23.972Z,35.83
2023-04-15T00:32:50.627Z,37.08
2023-04-15T00:35:21.685Z,36.10
2023-04-15T00:37:49.622Z,36.10
2023-04-15T00:40:18.729Z,40.80
2023-04-15T00:42:45.665Z,44.47
2023-04-15T00:45:12.275Z,38.90
2023-04-15T00:47:39.432Z,37.80
2023-04-15T00:50:06.586Z,45.90
2023-04-15T00:52:33.124Z,38.45
2023-04-15T00:55:00.163Z,38.47
2023-04-15T00:57:27.492Z,42.17
2023-04-15T00:59:56.019Z,44.88
2023-04-15T01:02:23.339Z,43.72
2023-04-15T01:04:50.161Z,40.80
2023-04-15T01:07:17.327Z,42.60
2023-04-15T01:09:43.864Z,43.08
2023-04-15T01:12:12.587Z,42.30
2023-04-15T01:14:39.531Z,51.15
2023-04-15T01:17:06.026Z,44.92
2023-04-15T01:19:32.942Z,46.25
2023-04-15T01:21:59.544Z,48.67
2023-04-15T01:24:28.180Z,51.40
2023-04-15T01:26:54.957Z,44.97
2023-04-15T01:29:23.895Z,48.25
2023-04-15T01:31:52.193Z,53.60
2023-04-15T01:34:19.150Z,48.30
2023-04-15T01:36:45.910Z,56.72
2023-04-15T01:39:13.798Z,57.08
2023-04-15T01:41:43.122Z,48.28
2023-04-15T01:44:10.059Z,47.80
2023-04-15T01:46:37.145Z,47.17
2023-04-15T01:49:03.747Z,51.22
2023-04-15T01:51:32.136Z,55.30
2023-04-15T01:53:58.694Z,46.22
2023-04-15T01:56:25.378Z,53.20
2023-04-15T01:58:52.275Z,51.40
2023-04-15T02:01:22.234Z,52.67
2023-04-15T02:03:49.104Z,50.83
2023-04-15T02:06:15.899Z,49.67
2023-04-15T02:08:42.427Z,51.60
2023-04-15T02:11:09.306Z,59.83
2023-04-15T02:13:36.298Z,55.60
2023-04-15T02:16:03.527Z,54.40
2023-04-15T02:18:30.120Z,65.57
2023-04-15T02:20:58.366Z,51.40
2023-04-15T02:23:24.930Z,61.40
2023-04-15T02:25:53.458Z,53.45
2023-04-15T02:28:20.769Z,60.92
2023-04-15T02:30:50.743Z,53.72
2023-04-15T02:33:17.465Z,59.25
2023-04-15T02:35:45.345Z,56.80
2023-04-15T02:38:12.084Z,51.10
2023-04-15T02:40:38.565Z,59.85
2023-04-15T02:43:07.315Z,65.07
2023-04-15T02:45:34.445Z,66.00
2023-04-15T02:48:06.222Z,69.07
2023-04-15T02:50:33.156Z,64.72
2023-04-15T02:53:01.554Z,61.10
2023-04-15T02:55:29.304Z,65.03
2023-04-15T02:57:56.036Z,58.80
2023-04-15T03:00:25.190Z,58.83
2023-04-15T03:02:56.400Z,69.65
2023-04-15T03:05:26.139Z,66.55
2023-04-15T03:07:53.450Z,69.45
2023-04-15T03:10:21.339Z,67.07
2023-04-15T03:12:48.245Z,67.57
2023-04-15T03:15:19.535Z,53.85
2023-04-15T03:17:49.714Z,64.60
2023-04-15T03:20:16.999Z,66.80
2023-04-15T03:22:43.629Z,64.97
2023-04-15T03:25:10.312Z,60.72
2023-04-15T03:27:38.566Z,68.55
2023-04-15T03:30:06.605Z,62.05
2023-04-15T03:32:36.435Z,63.33
2023-04-15T03:35:02.909Z,66.22
2023-04-15T03:37:29.406Z,58.85
2023-04-15T03:39:56.002Z,57.70
2023-04-15T03:42:22.717Z,63.25
2023-04-15T03:44:49.300Z,55.17
2023-04-15T03:47:15.819Z,62.33
2023-04-15T03:49:42.273Z,55.28
2023-04-15T03:52:08.749Z,59.00
2023-04-15T03:54:35.296Z,59.88
2023-04-15T03:57:01.797Z,61.65
2023-04-15T03:59:28.290Z,58.10
2023-04-15T04:01:54.930Z,56.83
2023-04-15T04:04:21.692Z,63.20
2023-04-15T04:06:48.226Z,58.58
2023-04-15T04:09:14.684Z,52.70
2023-04-15T04:11:41.148Z,51.28
2023-04-15T04:14:07.622Z,54.33
2023-04-15T04:16:34.134Z,55.00
2023-04-15T04:19:00.972Z,47.30
2023-04-15T04:21:28.105Z,47.75
2023-04-15T04:23:54.630Z,49.45
2023-04-15T04:26:21.511Z,44.17
2023-04-15T04:28:47.973Z,46.45
2023-04-15T04:31:14.455Z,44.20
2023-04-15T04:33:40.924Z,43.67
2023-04-15T04:36:07.661Z,50.10
2023-04-15T04:38:34.183Z,45.50
2023-04-15T04:41:00.718Z,44.22
2023-04-15T04:43:27.465Z,44.75
2023-04-15T04:45:53.991Z,45.65
2023-04-15T04:48:20.567Z,47.28
2023-04-15T04:50:47.128Z,43.40
2023-04-15T04:53:13.647Z,42.25
2023-04-15T04:55:40.553Z,42.40
2023-04-15T04:58:07.002Z,47.53
2023-04-15T05:00:33.632Z,38.78
2023-04-15T05:03:00.633Z,44.58
2023-04-15T05:05:27.379Z,38.08
2023-04-15T05:07:54.000Z,38.63
2023-04-15T05:10:20.559Z,36.30
2023-04-15T05:12:47.080Z,36.75
2023-04-15T05:15:13.609Z,37.15
2023-04-15T05:17:40.127Z,38.13
2023-04-15T05:20:07.444Z,38.35
2023-04-15T05:22:33.908Z,36.08
2023-04-15T05:25:00.387Z,35.55
2023-04-15T05:27:26.917Z,34.22
2023-04-15T05:29:53.459Z,37.90
2023-04-15T05:32:20.061Z,36.92
2023-04-15T05:34:47.086Z,35.67
2023-04-15T05:37:13.557Z,33.17
2023-04-15T05:39:40.094Z,34.53
2023-04-15T05:42:06.845Z,32.53
2023-04-15T05:44:33.359Z,31.67
2023-04-15T05:46:59.914Z,33.45
2023-04-15T05:49:26.380Z,31.88
2023-04-15T05:51:52.945Z,29.80
2023-04-15T05:54:20.316Z,30.70
2023-04-15T05:56:47.005Z,29.67
2023-04-15T05:59:13.596Z,29.02
2023-04-15T06:01:40.222Z,27.38
2023-04-15T06:04:06.907Z,27.42
2023-04-15T06:06:33.435Z,27.33
2023-04-15T06:09:00.141Z,26.67
2023-04-15T06:11:27.292Z,25.73
2023-04-15T06:13:53.783Z,26.40
2023-04-15T06:16:20.290Z,24.05
2023-04-15T06:18:46.768Z,23.30
2023-04-15T06:21:13.333Z,24.83
2023-04-15T06:23:41.292Z,25.10
2023-04-15T06:26:07.949Z,22.85
2023-04-15T06:28:34.528Z,23.23
2023-04-15T06:31:02.061Z,23.33
2023-04-15T06:33:28.682Z,24.15
2023-04-15T06:35:55.355Z,22.40
2023-04-15T06:38:21.913Z,23.70
2023-04-15T06:56:52.344Z,18.77
2023-04-15T06:59:19.022Z,18.10
2023-04-15T07:01:45.678Z,18.25
2023-04-15T07:04:12.613Z,19.58
2023-04-15T07:06:39.768Z,18.35
2023-04-15T07:09:06.324Z,16.63
2023-04-15T07:11:32.989Z,17.25
2023-04-15T07:13:59.502Z,15.88
2023-04-15T07:16:27.850Z,16.88
2023-04-15T07:18:56.082Z,16.25
2023-04-15T07:21:22.956Z,15.60
2023-04-15T07:23:49.495Z,18.60
2023-04-15T07:26:16.076Z,15.27
2023-04-15T07:28:42.686Z,17.55
2023-04-15T07:31:09.265Z,16.30
2023-04-15T07:33:35.925Z,15.55
2023-04-15T07:36:02.696Z,16.02
2023-04-15T07:38:29.887Z,15.05
2023-04-15T07:41:05.156Z,17.45
2023-04-15T07:43:32.349Z,16.27
2023-04-15T07:45:59.371Z,20.77
2023-04-15T07:48:26.489Z,14.82
2023-04-15T07:50:53.988Z,15.65
2023-04-15T07:53:21.404Z,15.02
2023-04-15T07:55:47.976Z,15.48
2023-04-15T07:58:14.498Z,16.90
2023-04-15T08:00:41.656Z,17.40
2023-04-15T08:03:08.457Z,16.67
2023-04-15T08:05:35.553Z,16.65
2023-04-15T08:08:02.192Z,16.63
2023-04-15T08:10:29.794Z,15.25
2023-04-15T08:12:56.484Z,15.75
2023-04-15T08:15:23.598Z,17.60
2023-04-15T08:17:50.539Z,17.48
2023-04-15T08:20:17.143Z,15.95
2023-04-15T08:22:43.662Z,16.65
2023-04-15T08:25:10.478Z,17.02
2023-04-15T08:27:36.999Z,17.13
2023-04-15T08:30:05.218Z,16.48
2023-04-15T08:32:32.016Z,16.63
2023-04-15T08:34:58.577Z,16.73
2023-04-15T08:37:25.069Z,17.52
2023-04-15T08:39:51.557Z,16.40
2023-04-15T08:42:19.731Z,17.33
2023-04-15T08:44:46.419Z,17.63
2023-04-15T08:47:14.470Z,16.85
2023-04-15T08:49:41.938Z,19.77
2023-04-15T08:52:09.380Z,16.48
2023-04-15T08:54:36.738Z,17.65
2023-04-15T08:57:03.969Z,16.23
2023-04-15T08:59:31.175Z,17.63
2023-04-15T09:01:58.801Z,16.52
2023-04-15T09:04:25.595Z,17.13
2023-04-15T09:06:52.594Z,17.75
2023-04-15T09:09:19.521Z,17.67
2023-04-15T09:11:46.529Z,17.15
2023-04-15T09:14:13.530Z,18.10
2023-04-15T09:16:59.380Z,18.50
2023-04-15T09:19:26.360Z,17.45
2023-04-15T09:21:59.090Z,16.65
2023-04-15T09:24:37.483Z,16.83
2023-04-15T09:27:04.492Z,17.15
2023-04-15T09:29:31.687Z,16.70
2023-04-15T09:32:13.098Z,17.02
2023-04-15T09:34:39.739Z,17.27
2023-04-15T09:37:10.561Z,17.85
2023-04-15T09:39:51.995Z,17.40
2023-04-15T09:42:24.703Z,17.50
2023-04-15T09:44:53.007Z,16.65
2023-04-15T09:47:32.636Z,16.92
2023-04-15T09:50:00.375Z,16.83
2023-04-15T09:52:28.659Z,17.63
2023-04-15T09:54:57.136Z,17.05
2023-04-15T09:57:24.363Z,17.95
2023-04-15T09:59:51.794Z,18.10
2023-04-15T10:02:20.918Z,18.40
2023-04-15T10:04:48.612Z,19.13
2023-04-15T10:07:15.668Z,18.58
2023-04-15T10:09:43.118Z,17.55
2023-04-15T10:12:10.226Z,19.10
2023-04-15T10:14:41.507Z,18.63
2023-04-15T10:17:11.735Z,18.30
2023-04-15T10:19:38.582Z,18.43
2023-04-15T10:22:05.225Z,18.98
2023-04-15T10:24:34.994Z,19.10
2023-04-15T10:27:03.773Z,19.35
2023-04-15T10:29:30.581Z,17.27
2023-04-15T10:31:59.072Z,17.88
2023-04-15T10:34:26.399Z,18.52
2023-04-15T10:36:56.537Z,17.42
2023-04-15T10:39:43.512Z,18.02
2023-04-15T10:42:15.318Z,17.85
2023-04-15T10:44:43.865Z,17.83
2023-04-15T10:47:21.280Z,17.25
2023-04-15T10:49:52.930Z,18.65
2023-04-15T10:52:24.100Z,18.00
2023-04-15T10:57:23.326Z,17.55
2023-04-15T10:59:58.892Z,18.70
2023-04-15T11:02:53.878Z,16.88
2023-04-15T11:05:21.844Z,18.30
2023-04-15T11:07:58.551Z,17.10
2023-04-15T11:10:31.239Z,16.38
2023-04-15T11:13:27.132Z,17.55
2023-04-15T11:15:56.862Z,15.30
2023-04-15T11:18:26.061Z,16.35
2023-04-15T11:21:04.089Z,15.80
2023-04-15T11:23:48.824Z,17.05
2023-04-15T11:26:15.891Z,17.00
2023-04-15T11:28:46.048Z,18.75
2023-04-15T11:31:20.135Z,17.40
2023-04-15T11:33:58.164Z,17.35
2023-04-15T11:36:29.014Z,16.67
2023-04-15T11:38:57.683Z,16.58
2023-04-15T11:41:24.308Z,17.42
2023-04-15T11:43:51.739Z,17.92
2023-04-15T11:46:19.044Z,18.35
2023-04-15T11:48:46.845Z,18.85
2023-04-15T11:51:14.286Z,18.80
2023-04-15T11:53:41.256Z,18.35
2023-04-15T11:56:10.131Z,19.33
2023-04-15T11:58:38.161Z,18.13
2023-04-15T12:01:05.472Z,18.27
2023-04-15T12:03:43.650Z,18.30
2023-04-15T12:06:22.044Z,20.23
2023-04-15T12:09:03.658Z,19.27
2023-04-15T12:11:47.523Z,18.80
2023-04-15T12:14:26.880Z,19.63
2023-04-15T12:16:56.648Z,20.52
2023-04-15T12:19:36.687Z,20.42
2023-04-15T12:22:05.446Z,20.58
2023-04-15T12:24:33.121Z,19.33
2023-04-15T12:27:04.117Z,19.85
2023-04-15T12:29:30.994Z,21.52
2023-04-15T12:31:59.189Z,19.88
2023-04-15T12:34:30.575Z,20.30
2023-04-15T12:36:57.938Z,20.02
2023-04-15T12:39:25.764Z,20.30
2023-04-15T12:41:55.581Z,19.17
2023-04-15T12:44:24.008Z,19.40
2023-04-15T12:46:52.948Z,17.50
2023-04-15T12:49:21.122Z,17.92
2023-04-15T12:51:53.401Z,17.30
2023-04-15T12:54:20.489Z,16.48
2023-04-15T12:56:48.259Z,16.23
2023-04-15T12:59:16.004Z,14.70
2023-04-15T13:01:42.667Z,14.70
2023-04-15T13:04:09.555Z,15.20
2023-04-15T13:06:36.808Z,14.20
2023-04-15T13:09:05.295Z,13.50
2023-04-15T13:11:33.847Z,14.35
2023-04-15T13:14:08.354Z,12.88
2023-04-15T13:16:35.731Z,13.25
2023-04-15T13:19:03.598Z,12.93
2023-04-15T13:21:32.249Z,15.15
2023-04-15T13:23:59.495Z,14.60
2023-04-15T13:26:26.496Z,13.07
2023-04-15T13:28:52.963Z,13.60
2023-04-15T13:31:19.505Z,13.70
2023-04-15T13:33:46.049Z,13.68
2023-04-15T13:36:12.562Z,14.52
2023-04-15T13:38:39.049Z,13.02
2023-04-15T13:41:05.572Z,13.00
2023-04-15T13:43:33.656Z,14.30
2023-04-15T13:46:00.256Z,14.40
2023-04-15T13:48:26.789Z,14.18
2023-04-15T13:50:53.308Z,13.15
2023-04-15T13:53:19.781Z,13.15
2023-04-15T13:55:46.359Z,11.65
2023-04-15T13:58:12.935Z,11.60
2023-04-15T14:00:39.442Z,11.70
2023-04-15T14:03:06.044Z,12.10
2023-04-15T14:05:32.779Z,11.50
2023-04-15T14:08:00.524Z,12.00
2023-04-15T14:10:27.157Z,12.95
2023-04-15T14:12:53.682Z,12.50
2023-04-15T14:15:20.319Z,12.25
2023-04-15T14:17:46.870Z,12.35
2023-04-15T14:20:15.627Z,12.02
2023-04-15T14:22:43.669Z,11.80
2023-04-15T14:25:15.057Z,10.63
2023-04-15T14:27:46.594Z,11.45
2023-04-15T14:30:13.300Z,11.00
2023-04-15T14:32:39.865Z,11.10
2023-04-15T14:35:06.665Z,12.43
2023-04-15T14:37:33.231Z,11.18
2023-04-15T14:39:59.709Z,11.20
2023-04-15T14:42:26.225Z,12.68
2023-04-15T14:44:52.731Z,12.65
2023-04-15T14:47:19.251Z,13.77
2023-04-15T14:49:45.789Z,12.40
2023-04-15T14:52:12.592Z,12.63
2023-04-15T14:54:39.093Z,12.95
2023-04-15T14:57:05.571Z,14.32
2023-04-15T14:59:32.146Z,14.60
2023-04-15T15:01:58.910Z,14.50
2023-04-15T15:04:25.583Z,15.00
2023-04-15T15:06:52.170Z,13.63
2023-04-15T15:09:19.788Z,13.43
2023-04-15T15:11:46.461Z,13.10
2023-04-15T15:14:58.652Z,14.73
2023-04-15T15:17:26.245Z,13.10
2023-04-15T15:19:53.248Z,13.15
2023-04-15T15:22:21.532Z,13.90
2023-04-15T15:24:48.804Z,12.48
2023-04-15T15:27:15.349Z,11.70
2023-04-15T15:29:41.869Z,10.88
2023-04-15T15:32:08.384Z,10.93
2023-04-15T15:34:34.978Z,9.88
2023-04-15T15:37:01.506Z,11.27
2023-04-15T15:39:28.366Z,10.32
2023-04-15T15:41:55.063Z,10.85
2023-04-15T15:44:21.668Z,11.32
2023-04-15T15:46:48.208Z,10.85
2023-04-15T15:49:14.868Z,11.23
2023-04-15T15:51:41.440Z,11.32
2023-04-15T15:54:07.945Z,12.68
2023-04-15T15:56:35.089Z,12.07
2023-04-15T15:59:01.635Z,13.02
2023-04-15T16:01:28.223Z,12.88
2023-04-15T16:03:55.036Z,14.00
2023-04-15T16:06:21.685Z,13.18
2023-04-15T16:08:48.197Z,13.32
2023-04-15T16:11:14.805Z,12.90
2023-04-15T16:13:41.291Z,14.30
2023-04-15T16:16:07.892Z,13.68
2023-04-15T16:18:35.370Z,12.82
2023-04-15T16:21:01.980Z,13.15
2023-04-15T16:23:28.549Z,13.25
2023-04-15T16:25:55.116Z,15.20
2023-04-15T16:28:26.910Z,13.18
2023-04-15T16:30:54.302Z,14.07
2023-04-15T16:33:21.097Z,13.82
2023-04-15T16:35:47.662Z,13.95
2023-04-15T16:38:14.156Z,12.65
2023-04-15T16:40:40.687Z,12.25
2023-04-15T16:43:08.121Z,12.55
2023-04-15T16:45:34.652Z,10.90
2023-04-15T16:48:01.186Z,12.00
2023-04-15T16:50:27.746Z,12.07
2023-04-15T16:52:54.474Z,11.93
2023-04-15T16:55:21.002Z,11.48
2023-04-15T16:58:02.619Z,11.60
2023-04-15T17:00:31.129Z,13.57
2023-04-15T17:02:57.966Z,12.73
2023-04-15T17:05:24.685Z,11.35
2023-04-15T17:07:51.245Z,12.32
2023-04-15T17:10:17.773Z,11.60
2023-04-15T17:12:44.277Z,11.20
2023-04-15T17:15:10.984Z,11.65
2023-04-15T17:17:37.537Z,11.40
2023-04-15T17:20:04.274Z,11.95
2023-04-15T17:22:30.836Z,12.43
2023-04-15T17:24:57.349Z,10.05
2023-04-15T17:27:24.725Z,11.15
2023-04-15T17:29:51.428Z,10.43
2023-04-15T17:32:17.949Z,10.68
2023-04-15T17:34:49.400Z,10.82
2023-04-15T17:37:17.729Z,11.05
2023-04-15T17:39:44.302Z,11.15
2023-04-15T17:42:11.288Z,10.18
2023-04-15T17:44:37.790Z,10.40
2023-04-15T17:47:04.283Z,11.30
2023-04-15T17:49:31.312Z,9.57
2023-04-15T17:51:57.832Z,9.98
2023-04-15T17:54:24.325Z,10.82
2023-04-15T17:56:51.647Z,10.60
2023-04-15T17:59:18.146Z,10.93
2023-04-15T18:01:45.555Z,11.25
2023-04-15T18:04:12.599Z,13.02
2023-04-15T18:06:39.358Z,11.80
2023-04-15T18:09:08.756Z,12.10
2023-04-15T18:11:35.398Z,12.27
2023-04-15T18:14:02.928Z,12.40
2023-04-15T18:16:29.756Z,12.70
2023-04-15T18:18:56.302Z,12.90
2023-04-15T18:21:22.804Z,12.75
2023-04-15T18:23:49.300Z,13.65
2023-04-15T18:26:15.936Z,13.65
2023-04-15T18:28:42.503Z,13.45
2023-04-15T18:31:09.144Z,14.80
2023-04-15T18:33:36.167Z,14.75
2023-04-15T18:36:02.793Z,14.30
2023-04-15T18:38:29.412Z,26.58
2023-04-15T18:40:56.046Z,15.45
2023-04-15T18:43:22.585Z,14.90
2023-04-15T18:45:49.198Z,15.23
2023-04-15T18:48:16.046Z,16.40
2023-04-15T18:50:43.053Z,16.27
2023-04-15T18:53:09.758Z,18.52
2023-04-15T18:55:36.477Z,19.70
2023-04-15T18:58:07.563Z,19.45
2023-04-15T19:00:38.920Z,21.10
2023-04-15T19:03:06.303Z,20.98
2023-04-15T19:05:33.011Z,18.35
2023-04-15T19:07:59.794Z,18.55
2023-04-15T19:10:27.974Z,18.83
2023-04-15T19:12:55.175Z,19.67
2023-04-15T19:15:21.771Z,18.63
2023-04-15T19:17:48.316Z,17.67
2023-04-15T19:20:14.918Z,16.40
2023-04-15T19:22:43.025Z,17.05
2023-04-15T19:25:09.703Z,16.85
2023-04-15T19:27:38.152Z,17.10
2023-04-15T19:30:06.274Z,16.45
2023-04-15T19:32:32.845Z,17.58
2023-04-15T19:34:59.480Z,18.42
2023-04-15T19:37:26.082Z,18.63
2023-04-15T19:39:54.289Z,19.55
2023-04-15T19:42:20.872Z,19.55
2023-04-15T19:44:47.379Z,17.67
2023-04-15T19:47:13.929Z,16.58
2023-04-15T19:49:40.861Z,17.23
2023-04-15T19:52:07.603Z,18.42
2023-04-15T19:54:34.491Z,19.00
2023-04-15T19:57:02.060Z,17.90
2023-04-15T19:59:28.596Z,19.60
2023-04-15T20:01:55.223Z,20.50
2023-04-15T20:04:22.694Z,20.73
2023-04-15T20:06:49.722Z,19.95
2023-04-15T20:09:16.574Z,21.25
2023-04-15T20:12:45.691Z,23.42
2023-04-15T20:14:29.803Z,24.73
2023-04-15T20:16:56.353Z,26.48
2023-04-15T20:19:22.867Z,29.55
2023-04-15T20:21:50.860Z,30.42
2023-04-15T20:24:20.155Z,27.75
2023-04-15T20:26:46.853Z,32.35
2023-04-15T20:29:14.045Z,34.00
2023-04-15T20:31:41.061Z,29.10
2023-04-15T20:34:09.533Z,32.13
2023-04-15T20:36:37.983Z,31.00
2023-04-15T20:39:04.796Z,31.52
2023-04-15T20:41:31.529Z,31.50
2023-04-15T20:43:58.012Z,31.85
2023-04-15T20:46:26.678Z,31.45
2023-04-15T20:48:54.080Z,31.55
2023-04-15T20:51:20.658Z,30.58
2023-04-15T20:53:47.150Z,28.52
2023-04-15T20:56:13.857Z,27.27
2023-04-15T20:58:41.215Z,29.13
2023-04-15T21:01:07.921Z,32.50
2023-04-15T21:03:34.996Z,30.05
2023-04-15T21:06:01.733Z,27.88
2023-04-15T21:08:31.636Z,29.73
2023-04-15T21:10:58.320Z,28.90
2023-04-15T21:13:25.063Z,29.95
2023-04-15T21:15:53.979Z,29.67
2023-04-15T21:18:21.658Z,28.50
2023-04-15T21:20:56.525Z,30.67
2023-04-15T21:23:23.165Z,30.27
2023-04-15T21:25:49.730Z,29.70
2023-04-15T21:28:20.218Z,31.45
2023-04-15T21:30:47.366Z,27.08
2023-04-15T21:33:14.293Z,29.63
2023-04-15T21:35:41.088Z,31.10
2023-04-15T21:38:08.089Z,29.10
2023-04-15T21:40:43.345Z,31.17
2023-04-15T21:43:15.365Z,32.83
2023-04-15T21:46:21.473Z,28.85
2023-04-15T21:48:31.964Z,33.53
2023-04-15T21:50:59.666Z,30.42
2023-04-15T21:53:26.417Z,30.42
2023-04-15T21:55:53.021Z,32.08
2023-04-15T21:58:19.645Z,32.60
2023-04-15T22:00:46.203Z,31.98
2023-04-15T22:03:12.854Z,31.98
2023-04-15T22:05:39.415Z,33.38
2023-04-15T22:08:06.023Z,31.83
2023-04-15T22:10:32.520Z,31.35
2023-04-15T22:13:02.432Z,32.72
2023-04-15T22:15:29.087Z,32.67
2023-04-15T22:17:55.639Z,31.85
2023-04-15T22:20:22.219Z,31.85
2023-04-15T22:22:48.699Z,30.27
2023-04-15T22:25:20.963Z,32.15
2023-04-15T22:27:47.465Z,33.08
2023-04-15T22:30:13.957Z,31.77
2023-04-15T22:32:40.510Z,32.25
2023-04-15T22:35:07.264Z,33.00
2023-04-15T22:37:33.776Z,31.90
2023-04-15T22:40:11.384Z,32.38
2023-04-15T22:42:37.911Z,32.10
2023-04-15T22:45:04.736Z,32.42
2023-04-15T22:47:31.254Z,29.42
2023-04-15T22:49:57.860Z,30.35
2023-04-15T22:52:30.418Z,29.77
2023-04-15T22:54:58.065Z,29.55
2023-04-15T22:57:24.569Z,28.98
2023-04-15T22:59:51.374Z,30.75
2023-04-15T23:02:18.077Z,27.88
2023-04-15T23:04:45.416Z,29.25
2023-04-15T23:07:12.070Z,30.88
2023-04-15T23:09:39.231Z,30.23
2023-04-15T23:12:06.331Z,31.77
2023-04-15T23:14:32.809Z,29.52
2023-04-15T23:16:59.306Z,33.33
2023-04-15T23:19:25.788Z,31.58
2023-04-15T23:21:52.757Z,33.78
2023-04-15T23:24:19.226Z,32.50
2023-04-15T23:26:45.703Z,33.70
2023-04-15T23:29:12.261Z,34.28
2023-04-15T23:31:38.791Z,33.83
2023-04-15T23:34:06.410Z,35.25
2023-04-15T23:36:32.983Z,37.75
2023-04-15T23:38:59.456Z,37.60
2023-04-15T23:41:25.956Z,38.38
2023-04-15T23:43:52.431Z,37.03
2023-04-15T23:46:18.937Z,38.05
2023-04-15T23:48:47.718Z,40.88
2023-04-15T23:51:14.295Z,40.90
2023-04-15T23:53:40.793Z,38.22
2023-04-15T23:56:07.510Z,39.75
2023-04-15T23:58:34.658Z,41.15
